createdAt,value
2023-02-03T00:01:25.554Z,101464.00
2023-02-03T00:03:55.437Z,101464.00
2023-02-03T00:06:28.293Z,101464.00
2023-02-03T00:09:01.783Z,101454.00
2023-02-03T00:11:34.910Z,101442.00
2023-02-03T00:14:05.487Z,101441.00
2023-02-03T00:16:35.460Z,101434.00
2023-02-03T00:19:05.385Z,101422.00
2023-02-03T00:21:37.808Z,101413.00
2023-02-03T00:24:08.661Z,101398.00
2023-02-03T00:26:43.970Z,101384.00
2023-02-03T00:29:14.790Z,101373.00
2023-02-03T00:31:44.727Z,101375.00
2023-02-03T00:34:14.668Z,101364.00
2023-02-03T00:36:48.384Z,101352.00
2023-02-03T00:39:18.772Z,101352.00
2023-02-03T00:41:48.634Z,101344.00
2023-02-03T00:44:18.957Z,101346.00
2023-02-03T00:46:48.815Z,101331.00
2023-02-03T00:49:18.693Z,101321.00
2023-02-03T00:51:51.146Z,101317.00
2023-02-03T00:54:21.353Z,101323.00
2023-02-03T00:56:51.241Z,101312.00
2023-02-03T00:59:21.109Z,101318.00
2023-02-03T01:01:51.801Z,101320.00
2023-02-03T01:04:21.686Z,101321.00
2023-02-03T01:06:57.498Z,101322.00
2023-02-03T01:09:27.436Z,101312.00
2023-02-03T01:11:57.538Z,101315.00
2023-02-03T01:14:27.381Z,101308.00
2023-02-03T01:16:57.350Z,101300.00
2023-02-03T01:19:27.644Z,101299.00
2023-02-03T01:22:00.141Z,101303.00
2023-02-03T01:24:32.108Z,101307.00
2023-02-03T01:27:02.028Z,101307.00
2023-02-03T01:29:31.884Z,101293.00
2023-02-03T01:32:01.889Z,101274.00
2023-02-03T01:34:31.871Z,101275.00
2023-02-03T01:37:04.338Z,101277.00
2023-02-03T01:39:34.269Z,101271.00
2023-02-03T01:42:04.202Z,101271.00
2023-02-03T01:44:53.804Z,101271.00
2023-02-03T01:47:31.405Z,101261.00
2023-02-03T01:50:11.736Z,101261.00
2023-02-03T01:52:46.924Z,101260.00
2023-02-03T01:55:21.737Z,101244.00
2023-02-03T01:57:56.896Z,101224.00
2023-02-03T02:00:27.537Z,101217.00
2023-02-03T02:02:58.604Z,101210.00
2023-02-03T02:05:34.384Z,101215.00
2023-02-03T02:08:08.224Z,101204.00
2023-02-03T02:10:38.323Z,101202.00
2023-02-03T02:13:08.904Z,101203.00
2023-02-03T02:15:52.846Z,101200.00
2023-02-03T02:18:56.533Z,101186.00
2023-02-03T02:21:48.304Z,101177.00
2023-02-03T02:24:57.882Z,101166.00
2023-02-03T02:28:06.980Z,101154.00
2023-02-03T02:30:58.805Z,101135.00
2023-02-03T02:33:40.645Z,101132.00
2023-02-03T02:36:21.749Z,101125.00
2023-02-03T02:39:02.402Z,101120.00
2023-02-03T02:41:42.700Z,101108.00
2023-02-03T02:44:19.972Z,101083.00
2023-02-03T02:46:53.939Z,101072.00
2023-02-03T02:49:32.972Z,101074.00
2023-02-03T02:52:06.599Z,101067.00
2023-02-03T02:54:41.821Z,101065.00
2023-02-03T02:57:15.054Z,101058.00
2023-02-03T02:59:44.977Z,101065.00
2023-02-03T03:02:15.226Z,101059.00
2023-02-03T03:04:51.274Z,101051.00
2023-02-03T03:07:26.377Z,101049.00
2023-02-03T03:10:01.276Z,101031.00
2023-02-03T03:12:35.144Z,101025.00
2023-02-03T03:15:10.131Z,101025.00
2023-02-03T03:17:45.456Z,101011.00
2023-02-03T03:20:23.679Z,101012.00
2023-02-03T03:23:00.418Z,101011.00
2023-02-03T03:25:39.532Z,100990.00
2023-02-03T03:28:15.212Z,100971.00
2023-02-03T03:30:45.560Z,100966.00
2023-02-03T03:33:15.609Z,100953.00
2023-02-03T03:35:57.357Z,100954.00
2023-02-03T03:38:35.311Z,100945.00
2023-02-03T03:41:09.859Z,100929.00
2023-02-03T03:43:45.745Z,100932.00
2023-02-03T03:46:19.465Z,100924.00
2023-02-03T03:48:56.290Z,100920.00
2023-02-03T03:51:33.603Z,100915.00
2023-02-03T03:54:08.646Z,100908.00
2023-02-03T03:56:44.330Z,100900.00
2023-02-03T03:59:17.106Z,100906.00
2023-02-03T04:01:47.432Z,100889.00
2023-02-03T04:04:19.431Z,100879.00
2023-02-03T04:06:51.925Z,100901.00
2023-02-03T04:09:21.810Z,100912.00
2023-02-03T04:12:06.883Z,100870.00
2023-02-03T04:14:38.869Z,100915.00
2023-02-03T04:17:09.275Z,100894.00
2023-02-03T04:19:39.126Z,100896.00
2023-02-03T04:22:11.666Z,100879.00
2023-02-03T04:24:41.553Z,100855.00
2023-02-03T04:27:11.452Z,100854.00
2023-02-03T04:29:41.353Z,100848.00
2023-02-03T04:32:11.287Z,100836.00
2023-02-03T04:34:41.184Z,100837.00
2023-02-03T04:37:13.702Z,100845.00
2023-02-03T04:39:43.558Z,100828.00
2023-02-03T04:42:13.421Z,100812.00
2023-02-03T04:44:43.274Z,100813.00
2023-02-03T04:47:13.370Z,100810.00
2023-02-03T04:49:43.243Z,100798.00
2023-02-03T04:52:15.985Z,100797.00
2023-02-03T04:54:45.888Z,100783.00
2023-02-03T04:57:15.799Z,100774.00
2023-02-03T04:59:45.675Z,100775.00
2023-02-03T05:02:15.532Z,100766.00
2023-02-03T05:04:45.468Z,100756.00
2023-02-03T05:07:18.092Z,100750.00
2023-02-03T05:09:47.990Z,100744.00
2023-02-03T05:12:17.877Z,100739.00
2023-02-03T05:14:47.767Z,100734.00
2023-02-03T05:17:17.657Z,100731.00
2023-02-03T05:19:47.548Z,100738.00
2023-02-03T05:22:20.081Z,100739.00
2023-02-03T05:24:49.936Z,100724.00
2023-02-03T05:27:19.806Z,100731.00
2023-02-03T05:29:49.645Z,100726.00
2023-02-03T05:32:19.507Z,100716.00
2023-02-03T05:34:49.406Z,100710.00
2023-02-03T05:37:21.848Z,100704.00
2023-02-03T05:39:51.746Z,100703.00
2023-02-03T05:42:19.060Z,100689.00
2023-02-03T05:44:48.903Z,100694.00
2023-02-03T05:47:18.752Z,100685.00
2023-02-03T05:49:48.625Z,100686.00
2023-02-03T05:52:21.205Z,100677.00
2023-02-03T05:54:51.077Z,100665.00
2023-02-03T05:57:20.983Z,100665.00
2023-02-03T05:59:50.850Z,100662.00
2023-02-03T06:02:20.701Z,100655.00
2023-02-03T06:04:50.585Z,100646.00
2023-02-03T06:07:23.179Z,100650.00
2023-02-03T06:09:53.049Z,100640.00
2023-02-03T06:12:22.901Z,100636.00
2023-02-03T06:14:52.795Z,100631.00
2023-02-03T06:17:22.672Z,100622.00
2023-02-03T06:19:52.549Z,100618.00
2023-02-03T06:22:25.080Z,100604.00
2023-02-03T06:24:55.179Z,100605.00
2023-02-03T06:27:25.090Z,100598.00
2023-02-03T06:29:54.956Z,100589.00
2023-02-03T06:32:24.917Z,100594.00
2023-02-03T06:34:54.757Z,100596.00
2023-02-03T06:37:27.212Z,100599.00
2023-02-03T06:39:57.201Z,100606.00
2023-02-03T06:42:27.057Z,100597.00
2023-02-03T06:44:56.911Z,100592.00
2023-02-03T06:47:26.997Z,100593.00
2023-02-03T06:49:56.913Z,100587.00
2023-02-03T06:52:29.467Z,100582.00
2023-02-03T06:54:59.355Z,100574.00
2023-02-03T06:57:29.240Z,100567.00
2023-02-03T06:59:59.130Z,100555.00
2023-02-03T07:02:29.258Z,100548.00
2023-02-03T07:04:59.151Z,100551.00
2023-02-03T07:07:32.994Z,100542.00
2023-02-03T07:10:02.898Z,100547.00
2023-02-03T07:12:32.821Z,100531.00
2023-02-03T07:15:02.665Z,100510.00
2023-02-03T07:17:32.526Z,100514.00
2023-02-03T07:20:03.401Z,100511.00
2023-02-03T07:22:36.468Z,100490.00
2023-02-03T07:25:06.800Z,100502.00
2023-02-03T07:27:36.672Z,100493.00
2023-02-03T07:30:07.927Z,100492.00
2023-02-03T07:32:37.832Z,100482.00
2023-02-03T07:35:08.810Z,100482.00
2023-02-03T07:37:41.301Z,100476.00
2023-02-03T07:40:12.850Z,100472.00
2023-02-03T07:42:45.498Z,100456.00
2023-02-03T07:45:17.681Z,100459.00
2023-02-03T07:47:48.131Z,100454.00
2023-02-03T07:50:18.132Z,100447.00
2023-02-03T07:52:53.318Z,100439.00
2023-02-03T07:55:23.177Z,100437.00
2023-02-03T07:57:53.063Z,100435.00
2023-02-03T08:00:24.257Z,100427.00
2023-02-03T08:02:54.818Z,100424.00
2023-02-03T08:05:24.780Z,100440.00
2023-02-03T08:07:57.271Z,100417.00
2023-02-03T08:10:27.495Z,100413.00
2023-02-03T08:12:57.547Z,100408.00
2023-02-03T08:15:27.472Z,100407.00
2023-02-03T08:17:57.497Z,100390.00
2023-02-03T08:20:27.743Z,100390.00
2023-02-03T08:23:00.435Z,100385.00
2023-02-03T08:25:30.421Z,100384.00
2023-02-03T08:28:00.410Z,100372.00
2023-02-03T08:30:30.603Z,100365.00
2023-02-03T08:33:00.817Z,100359.00
2023-02-03T08:35:30.911Z,100357.00
2023-02-03T08:38:03.388Z,100350.00
2023-02-03T08:40:33.366Z,100338.00
2023-02-03T08:43:03.631Z,100354.00
2023-02-03T08:45:33.620Z,100340.00
2023-02-03T08:48:03.623Z,100336.00
2023-02-03T08:50:33.560Z,100338.00
2023-02-03T08:53:06.067Z,100331.00
2023-02-03T08:55:35.953Z,100317.00
2023-02-03T08:58:05.849Z,100313.00
2023-02-03T09:00:35.744Z,100316.00
2023-02-03T09:03:06.283Z,100317.00
2023-02-03T09:05:36.885Z,100307.00
2023-02-03T09:08:09.396Z,100310.00
2023-02-03T09:10:39.650Z,100300.00
2023-02-03T09:13:09.509Z,100293.00
2023-02-03T09:15:40.394Z,100297.00
2023-02-03T09:18:10.338Z,100301.00
2023-02-03T09:20:40.314Z,100292.00
2023-02-03T09:23:13.216Z,100287.00
2023-02-03T09:25:46.279Z,100282.00
2023-02-03T09:28:17.201Z,100269.00
2023-02-03T09:30:47.764Z,100277.00
2023-02-03T09:33:17.677Z,100277.00
2023-02-03T09:35:55.402Z,100260.00
2023-02-03T09:38:29.675Z,100269.00
2023-02-03T09:41:11.683Z,100258.00
2023-02-03T09:43:50.177Z,100260.00
2023-02-03T09:46:25.657Z,100238.00
2023-02-03T09:49:00.844Z,100242.00
2023-02-03T09:51:39.128Z,100230.00
2023-02-03T09:54:23.601Z,100222.00
2023-02-03T09:57:00.166Z,100204.00
2023-02-03T09:59:32.283Z,100198.00
2023-02-03T10:02:20.812Z,100205.00
2023-02-03T10:05:01.179Z,100206.00
2023-02-03T10:07:39.515Z,100195.00
2023-02-03T10:10:21.645Z,100183.00
2023-02-03T10:13:18.913Z,100188.00
2023-02-03T10:16:24.192Z,100168.00
2023-02-03T10:18:57.302Z,100168.00
2023-02-03T10:21:39.271Z,100154.00
2023-02-03T10:24:14.786Z,100158.00
2023-02-03T10:26:47.254Z,100152.00
2023-02-03T10:29:23.860Z,100157.00
2023-02-03T10:31:56.098Z,100179.00
2023-02-03T10:34:28.787Z,100172.00
2023-02-03T10:37:00.666Z,100173.00
2023-02-03T10:39:36.006Z,100180.00
2023-02-03T10:42:09.987Z,100198.00
2023-02-03T10:44:43.632Z,100207.00
2023-02-03T10:47:28.110Z,100233.00
2023-02-03T10:50:01.099Z,100266.00
2023-02-03T10:52:34.441Z,100245.00
2023-02-03T10:55:12.067Z,100266.00
2023-02-03T10:57:46.048Z,100251.00
2023-02-03T11:00:27.237Z,100251.00
2023-02-03T11:03:07.175Z,100255.00
2023-02-03T11:05:37.730Z,100232.00
2023-02-03T11:08:07.922Z,100230.00
2023-02-03T11:10:40.907Z,100228.00
2023-02-03T11:13:25.704Z,100241.00
2023-02-03T11:15:59.137Z,100237.00
2023-02-03T11:18:44.266Z,100225.00
2023-02-03T11:21:17.093Z,100230.00
2023-02-03T11:23:56.170Z,100217.00
2023-02-03T11:26:30.290Z,100227.00
2023-02-03T11:29:05.162Z,100234.00
2023-02-03T11:31:37.892Z,100221.00
2023-02-03T11:34:17.261Z,100228.00
2023-02-03T11:36:47.121Z,100226.00
2023-02-03T11:39:29.198Z,100232.00
2023-02-03T11:41:59.627Z,100237.00
2023-02-03T11:44:33.819Z,100231.00
2023-02-03T11:47:11.089Z,100235.00
2023-02-03T11:50:21.078Z,100233.00
2023-02-03T11:53:23.003Z,100227.00
2023-02-03T11:56:11.253Z,100240.00
2023-02-03T11:59:06.382Z,100239.00
2023-02-03T12:02:07.178Z,100244.00
2023-02-03T12:05:21.877Z,100220.00
2023-02-03T12:08:13.039Z,100212.00
2023-02-03T12:10:55.412Z,100225.00
2023-02-03T12:13:47.618Z,100245.00
2023-02-03T12:16:36.066Z,100244.00
2023-02-03T12:19:17.744Z,100242.00
2023-02-03T12:21:50.052Z,100245.00
2023-02-03T12:24:38.081Z,100249.00
2023-02-03T12:27:28.253Z,100271.00
2023-02-03T12:30:04.216Z,100270.00
2023-02-03T12:32:41.462Z,100244.00
2023-02-03T12:35:24.354Z,100252.00
2023-02-03T12:38:04.540Z,100258.00
2023-02-03T12:40:43.021Z,100255.00
2023-02-03T12:43:26.479Z,100233.00
2023-02-03T12:46:01.066Z,100229.00
2023-02-03T12:48:38.283Z,100241.00
2023-02-03T12:51:16.985Z,100231.00
2023-02-03T12:53:54.443Z,100301.00
2023-02-03T12:56:30.852Z,100368.00
2023-02-03T12:59:05.238Z,100377.00
2023-02-03T13:01:40.631Z,100352.00
2023-02-03T13:04:18.398Z,100362.00
2023-02-03T13:07:00.224Z,100384.00
2023-02-03T13:09:39.664Z,100390.00
2023-02-03T13:12:15.060Z,100379.00
2023-02-03T13:14:49.798Z,100353.00
2023-02-03T13:17:22.374Z,100346.00
2023-02-03T13:19:56.107Z,100348.00
2023-02-03T13:22:30.109Z,100353.00
2023-02-03T13:25:08.982Z,100353.00
2023-02-03T13:27:49.698Z,100351.00
2023-02-03T13:30:53.468Z,100371.00
2023-02-03T13:33:52.984Z,100360.00
2023-02-03T13:37:17.093Z,100353.00
2023-02-03T13:40:06.066Z,100350.00
2023-02-03T13:42:40.850Z,100357.00
2023-02-03T13:45:16.373Z,100347.00
2023-02-03T13:47:49.672Z,100336.00
2023-02-03T13:50:26.076Z,100340.00
2023-02-03T13:53:01.535Z,100313.00
2023-02-03T13:55:45.956Z,100332.00
2023-02-03T13:58:24.784Z,100323.00
2023-02-03T14:01:24.874Z,100326.00
2023-02-03T14:03:54.939Z,100333.00
2023-02-03T14:07:02.529Z,100331.00
2023-02-03T14:09:49.612Z,100334.00
2023-02-03T14:13:05.370Z,100332.00
2023-02-03T14:15:39.523Z,100345.00
2023-02-03T14:18:35.413Z,100335.00
2023-02-03T14:21:24.415Z,100337.00
2023-02-03T14:24:06.900Z,100335.00
2023-02-03T14:26:43.380Z,100344.00
2023-02-03T14:29:30.011Z,100340.00
2023-02-03T14:32:03.368Z,100345.00
2023-02-03T14:34:44.441Z,100353.00
2023-02-03T14:37:25.077Z,100355.00
2023-02-03T14:40:31.469Z,100338.00
2023-02-03T14:43:22.581Z,100358.00
2023-02-03T14:46:20.319Z,100347.00
2023-02-03T14:49:11.108Z,100366.00
2023-02-03T14:52:04.063Z,100344.00
2023-02-03T14:54:57.010Z,100354.00
2023-02-03T14:57:41.195Z,100360.00
2023-02-03T15:00:31.622Z,100359.00
2023-02-03T15:03:27.998Z,100363.00
2023-02-03T15:06:03.853Z,100360.00
2023-02-03T15:08:39.044Z,100362.00
2023-02-03T15:11:31.720Z,100388.00
2023-02-03T15:14:22.799Z,100401.00
2023-02-03T15:16:59.107Z,100381.00
2023-02-03T15:19:36.645Z,100404.00
2023-02-03T15:22:22.317Z,100422.00
2023-02-03T15:24:54.105Z,100432.00
2023-02-03T15:27:26.495Z,100436.00
2023-02-03T15:29:59.030Z,100431.00
2023-02-03T15:32:33.067Z,100436.00
2023-02-03T15:35:08.889Z,100432.00
2023-02-03T15:37:46.524Z,100414.00
2023-02-03T15:40:21.442Z,100417.00
2023-02-03T15:42:59.274Z,100413.00
2023-02-03T15:45:35.376Z,100417.00
2023-02-03T15:48:11.113Z,100418.00
2023-02-03T15:50:49.800Z,100419.00
2023-02-03T15:53:34.491Z,100429.00
2023-02-03T15:56:09.079Z,100427.00
2023-02-03T15:58:48.646Z,100436.00
2023-02-03T16:01:23.223Z,100447.00
2023-02-03T16:03:55.371Z,100455.00
2023-02-03T16:06:36.054Z,100429.00
2023-02-03T16:09:07.769Z,100446.00
2023-02-03T16:11:40.094Z,100466.00
2023-02-03T16:14:14.316Z,100453.00
2023-02-03T16:16:58.942Z,100466.00
2023-02-03T16:19:38.378Z,100463.00
2023-02-03T16:22:39.796Z,100472.00
2023-02-03T16:25:17.298Z,100466.00
2023-02-03T16:27:48.905Z,100477.00
2023-02-03T16:30:39.012Z,100491.00
2023-02-03T16:33:30.603Z,100490.00
2023-02-03T16:36:16.529Z,100486.00
2023-02-03T16:39:03.843Z,100502.00
2023-02-03T16:41:47.502Z,100496.00
2023-02-03T16:44:29.905Z,100502.00
2023-02-03T16:47:12.827Z,100506.00
2023-02-03T16:49:55.192Z,100502.00
2023-02-03T16:52:25.094Z,100491.00
2023-02-03T16:54:58.119Z,100495.00
2023-02-03T16:57:28.047Z,100502.00
2023-02-03T16:59:57.962Z,100499.00
2023-02-03T17:02:27.923Z,100499.00
2023-02-03T17:04:57.871Z,100499.00
2023-02-03T17:07:27.737Z,100484.00
2023-02-03T17:10:00.181Z,100490.00
2023-02-03T17:12:30.900Z,100488.00
2023-02-03T17:15:00.779Z,100493.00
2023-02-03T17:17:30.807Z,100503.00
2023-02-03T17:20:00.782Z,100506.00
2023-02-03T17:22:32.212Z,100505.00
2023-02-03T17:25:04.745Z,100506.00
2023-02-03T17:27:34.660Z,100507.00
2023-02-03T17:30:04.557Z,100507.00
2023-02-03T17:32:34.448Z,100520.00
2023-02-03T17:35:04.310Z,100517.00
2023-02-03T17:37:36.289Z,100522.00
2023-02-03T17:53:55.666Z,100536.00
2023-02-03T17:56:28.674Z,100544.00
2023-02-03T17:58:59.944Z,100539.00
2023-02-03T18:01:31.754Z,100546.00
2023-02-03T18:04:04.728Z,100543.00
2023-02-03T18:06:36.683Z,100541.00
2023-02-03T18:09:09.133Z,100534.00
2023-02-03T18:11:41.558Z,100535.00
2023-02-03T18:14:12.399Z,100551.00
2023-02-03T18:16:42.979Z,100538.00
2023-02-03T18:19:16.914Z,100544.00
2023-02-03T18:21:47.171Z,100534.00
2023-02-03T18:24:18.564Z,100540.00
2023-02-03T18:26:53.925Z,100527.00
2023-02-03T18:29:24.487Z,100534.00
2023-02-03T18:31:54.356Z,100539.00
2023-02-03T18:34:25.165Z,100523.00
2023-02-03T18:36:55.066Z,100513.00
2023-02-03T18:39:24.979Z,100525.00
2023-02-03T18:41:57.487Z,100520.00
2023-02-03T18:44:27.583Z,100532.00
2023-02-03T18:47:05.948Z,100528.00
2023-02-03T18:49:37.566Z,100534.00
2023-02-03T18:52:08.300Z,100528.00
2023-02-03T18:54:38.559Z,100534.00
2023-02-03T18:57:13.306Z,100536.00
2023-02-03T18:59:43.944Z,100546.00
2023-02-03T19:02:14.674Z,100551.00
2023-02-03T19:04:44.544Z,100550.00
2023-02-03T19:07:14.987Z,100572.00
2023-02-03T19:09:44.839Z,100569.00
2023-02-03T19:12:17.308Z,100559.00
2023-02-03T19:14:47.199Z,100574.00
2023-02-03T19:17:17.231Z,100583.00
2023-02-03T19:19:47.450Z,100570.00
2023-02-03T19:22:17.571Z,100586.00
2023-02-03T19:24:47.421Z,100593.00
2023-02-03T19:27:19.874Z,100578.00
2023-02-03T19:29:49.787Z,100592.00
2023-02-03T19:32:19.759Z,100596.00
2023-02-03T19:34:49.621Z,100588.00
2023-02-03T19:37:19.625Z,100604.00
2023-02-03T19:39:51.540Z,100614.00
2023-02-03T19:42:24.036Z,100615.00
2023-02-03T19:44:53.873Z,100597.00
2023-02-03T19:47:23.777Z,100604.00
2023-02-03T19:49:53.662Z,100603.00
2023-02-03T19:52:23.555Z,100601.00
2023-02-03T19:54:55.513Z,100620.00
2023-02-03T19:57:27.953Z,100618.00
2023-02-03T19:59:57.805Z,100622.00
2023-02-03T20:02:27.686Z,100618.00
2023-02-03T20:04:57.690Z,100635.00
2023-02-03T20:07:28.639Z,100634.00
2023-02-03T20:09:58.668Z,100640.00
2023-02-03T20:12:31.925Z,100652.00
2023-02-03T20:15:02.908Z,100655.00
2023-02-03T20:17:32.796Z,100648.00
2023-02-03T20:20:02.700Z,100651.00
2023-02-03T20:22:32.574Z,100656.00
2023-02-03T20:25:02.450Z,100659.00
2023-02-03T20:27:35.042Z,100653.00
2023-02-03T20:30:05.072Z,100655.00
2023-02-03T20:32:35.015Z,100660.00
2023-02-03T20:35:06.595Z,100662.00
2023-02-03T20:37:37.326Z,100671.00
2023-02-03T20:40:15.550Z,100677.00
2023-02-03T20:42:48.122Z,100674.00
2023-02-03T20:45:20.830Z,100677.00
2023-02-03T20:47:51.931Z,100680.00
2023-02-03T20:50:31.660Z,100686.00
2023-02-03T20:53:16.179Z,100703.00
2023-02-03T20:55:46.047Z,100712.00
2023-02-03T20:58:21.989Z,100725.00
2023-02-03T21:00:52.396Z,100722.00
2023-02-03T21:03:35.849Z,100741.00
2023-02-03T21:06:07.296Z,100745.00
2023-02-03T21:08:37.954Z,100744.00
2023-02-03T21:11:14.450Z,100781.00
2023-02-03T21:13:49.628Z,100794.00
2023-02-03T21:16:22.987Z,100796.00
2023-02-03T21:18:56.695Z,100828.00
2023-02-03T21:21:32.420Z,100847.00
2023-02-03T21:24:02.327Z,100834.00
2023-02-03T21:26:36.732Z,100852.00
2023-02-03T21:29:25.617Z,100878.00
2023-02-03T21:31:56.928Z,100892.00
2023-02-03T21:34:33.399Z,100903.00
2023-02-03T21:37:19.453Z,100906.00
2023-02-03T21:39:50.732Z,100917.00
2023-02-03T21:42:45.542Z,100933.00
2023-02-03T21:45:45.231Z,100953.00
2023-02-03T21:48:32.123Z,100947.00
2023-02-03T21:51:06.175Z,100953.00
2023-02-03T21:53:37.365Z,100960.00
2023-02-03T21:56:22.079Z,100973.00
2023-02-03T21:58:54.234Z,100975.00
2023-02-03T22:01:28.099Z,100973.00
2023-02-03T22:04:00.673Z,100985.00
2023-02-03T22:06:32.378Z,100987.00
2023-02-03T22:09:02.457Z,100994.00
2023-02-03T22:11:33.326Z,101008.00
2023-02-03T22:14:03.475Z,101029.00
2023-02-03T22:16:36.147Z,101024.00
2023-02-03T22:19:06.193Z,101018.00
2023-02-03T22:21:36.108Z,101052.00
2023-02-03T22:24:06.669Z,101055.00
2023-02-03T22:26:36.563Z,101070.00
2023-02-03T22:29:06.833Z,101074.00
2023-02-03T22:31:40.839Z,101088.00
2023-02-03T22:34:10.929Z,101089.00
2023-02-03T22:36:40.814Z,101091.00
2023-02-03T22:39:11.144Z,101091.00
2023-02-03T22:41:40.987Z,101103.00
2023-02-03T22:44:17.432Z,101119.00
2023-02-03T22:46:50.100Z,101134.00
2023-02-03T22:49:20.011Z,101145.00
2023-02-03T22:51:49.886Z,101151.00
2023-02-03T22:54:19.767Z,101168.00
2023-02-03T22:56:49.800Z,101175.00
2023-02-03T22:59:19.758Z,101203.00
2023-02-03T23:01:52.680Z,101201.00
2023-02-03T23:04:22.928Z,101210.00
2023-02-03T23:06:52.815Z,101223.00
2023-02-03T23:09:22.779Z,101238.00
2023-02-03T23:11:52.710Z,101249.00
2023-02-03T23:14:22.595Z,101253.00
2023-02-03T23:16:55.046Z,101259.00
2023-02-03T23:19:24.948Z,101277.00
2023-02-03T23:21:54.858Z,101283.00
2023-02-03T23:24:24.737Z,101293.00
2023-02-03T23:26:54.583Z,101294.00
2023-02-03T23:29:24.536Z,101316.00
2023-02-03T23:31:57.037Z,101329.00
2023-02-03T23:34:45.393Z,101342.00
2023-02-03T23:37:15.655Z,101357.00
2023-02-03T23:39:45.696Z,101375.00
2023-02-03T23:42:15.578Z,101384.00
2023-02-03T23:44:45.470Z,101394.00
2023-02-03T23:47:18.362Z,101403.00
2023-02-03T23:49:48.236Z,101419.00
2023-02-03T23:52:18.162Z,101422.00
2023-02-03T23:54:48.050Z,101439.00
2023-02-03T23:57:17.921Z,101441.00
2023-02-03T23:59:47.781Z,101443.00
